Time;durP1;ratioP1;P1;durP2;ratioP2;P2;SDS_P1;SDS_P2;PMS_P1;PMS_P2;Temp;Humidity;BMP_temperature;BMP_pressure;BME280_temperature;BME280_humidity;BME280_pressure;Samples;Min_cycle;Max_cycle;Signal;HPM_P1;HPM_P2
2019/06/16 00:02:24;;;;;;;8.4;1.4;;;;;;;16.33;81.12207;941.2556;;;;
2019/06/16 00:04:55;;;;;;;11.3;1.6;;;;;;;16.33;81.12207;941.3585;;;;
2019/06/16 00:07:18;;;;;;;9;1.4;;;;;;;16.38;80.44922;941.3572;;;;
2019/06/16 00:09:51;;;;;;;5.5;1.4;;;;;;;16.32;80.63281;941.3176;;;;
2019/06/16 00:12:26;;;;;;;9.4;1.4;;;;;;;16.37;80.67676;941.1998;;;;
2019/06/16 00:14:56;;;;;;;5.7;1.2;;;;;;;16.45;80.23926;941.2003;;;;
2019/06/16 00:17:29;;;;;;;5.7;1.4;;;;;;;16.33;81.27246;941.2991;;;;
2019/06/16 00:19:54;;;;;;;6.2;1.2;;;;;;;16.54;79.71289;941.3097;;;;
2019/06/16 00:22:27;;;;;;;4.3;1.2;;;;;;;16.57;79.40723;941.327;;;;
2019/06/16 00:25:00;;;;;;;7.6;1.2;;;;;;;16.42;80.91895;941.289;;;;
2019/06/16 00:27:32;;;;;;;5;1.3;;;;;;;16.23;80.95117;941.3448;;;;
2019/06/16 00:30:05;;;;;;;3.5;1.3;;;;;;;16.22;81.33301;941.3883;;;;
2019/06/16 00:32:34;;;;;;;2.2;1.1;;;;;;;16.29;80.92773;941.4487;;;;
2019/06/16 00:35:01;;;;;;;4.2;1.2;;;;;;;16.27;81.19043;941.5157;;;;
2019/06/16 00:37:28;;;;;;;7;1.2;;;;;;;16.31;81.1875;941.4213;;;;
2019/06/16 00:39:56;;;;;;;8.5;1.3;;;;;;;16.38;81.29199;941.289;;;;
2019/06/16 00:42:32;;;;;;;5.6;1.3;;;;;;;16.37;81.06055;941.2681;;;;
2019/06/16 00:45:01;;;;;;;5.2;1.3;;;;;;;16.37;81.69727;941.1523;;;;
2019/06/16 00:47:35;;;;;;;6.7;1.2;;;;;;;16.28;81.5293;941.2567;;;;
2019/06/16 00:52:40;;;;;;;6.3;1.4;;;;;;;16.18;82.21484;941.3971;;;;
2019/06/16 00:55:13;;;;;;;3.7;1.5;;;;;;;16.19;82.20508;941.3785;;;;
2019/06/16 00:57:43;;;;;;;4.6;1.5;;;;;;;16.41;82.60645;941.3973;;;;
2019/06/16 01:00:19;;;;;;;4.8;1.3;;;;;;;16.57;82.04492;941.315;;;;
2019/06/16 01:02:41;;;;;;;3;1;;;;;;;16.34;82.55762;941.3318;;;;
2019/06/16 01:05:12;;;;;;;4.2;1.1;;;;;;;16.22;82.70996;941.3369;;;;
2019/06/16 01:07:36;;;;;;;3;1.2;;;;;;;16.42;82.58496;941.379;;;;
2019/06/16 01:10:15;;;;;;;4.5;1.3;;;;;;;16.47;81.94531;941.3906;;;;
2019/06/16 01:12:39;;;;;;;4.1;1.2;;;;;;;16.52;81.77051;941.3895;;;;
2019/06/16 01:15:05;;;;;;;4.3;1.6;;;;;;;16.27;82.39551;941.3566;;;;
2019/06/16 01:17:37;;;;;;;4.2;1.4;;;;;;;16.29;81.93457;941.2391;;;;
2019/06/16 01:20:06;;;;;;;3.5;1.4;;;;;;;16.44;81.92871;941.2269;;;;
2019/06/16 01:22:35;;;;;;;3.7;1.1;;;;;;;16.4;81.89746;941.2953;;;;
2019/06/16 01:25:06;;;;;;;4.3;1.3;;;;;;;16.19;82.39063;941.2589;;;;
2019/06/16 01:27:39;;;;;;;4.5;1.3;;;;;;;16.17;82.46777;941.2397;;;;
2019/06/16 01:30:32;;;;;;;4.9;1.4;;;;;;;16.27;82.98438;941.3059;;;;
2019/06/16 01:32:57;;;;;;;2.3;1;;;;;;;16.49;81.92578;941.2643;;;;
2019/06/16 01:35:25;;;;;;;4.6;1.2;;;;;;;16.35;81.69336;941.1976;;;;
2019/06/16 01:37:59;;;;;;;4;1.2;;;;;;;16.24;81.76465;941.1542;;;;
2019/06/16 01:40:33;;;;;;;3.2;1.2;;;;;;;16.17;81.58691;941.1714;;;;
2019/06/16 01:42:51;;;;;;;4.2;1.1;;;;;;;15.76;83.37402;941.1429;;;;
2019/06/16 01:45:19;;;;;;;4.6;1.5;;;;;;;15.77;83.62012;941.1719;;;;
2019/06/16 01:47:56;;;;;;;4.6;1.6;;;;;;;15.94;83.10547;941.1839;;;;
2019/06/16 01:50:24;;;;;;;5;1.4;;;;;;;16.06;82.88672;941.1272;;;;
2019/06/16 01:53:00;;;;;;;3.7;1.1;;;;;;;16.17;81.94727;941.0765;;;;
2019/06/16 01:55:31;;;;;;;2.8;1;;;;;;;15.98;82.28223;941.0938;;;;
2019/06/16 01:58:03;;;;;;;4.2;1.3;;;;;;;16.03;82.84668;941.0792;;;;
2019/06/16 02:00:27;;;;;;;4.7;1.5;;;;;;;16.11;82.22656;941.0577;;;;
2019/06/16 02:02:59;;;;;;;2.9;1.1;;;;;;;15.93;82.00781;941.0049;;;;
2019/06/16 02:05:32;;;;;;;3.3;1.2;;;;;;;15.93;82.21582;941.0683;;;;
2019/06/16 02:08:00;;;;;;;5.8;1.5;;;;;;;15.86;82.53711;941.0689;;;;
2019/06/16 02:10:37;;;;;;;3.2;1.5;;;;;;;15.6;83.9668;941.1228;;;;
2019/06/16 02:12:57;;;;;;;4.3;1.4;;;;;;;15.46;84.84082;941.0902;;;;
2019/06/16 02:15:23;;;;;;;3.5;1.2;;;;;;;15.59;84.40527;941.093;;;;
2019/06/16 02:18:01;;;;;;;4;1.4;;;;;;;15.78;83.11133;941.0089;;;;
2019/06/16 02:20:38;;;;;;;5.1;1.7;;;;;;;15.74;83.83105;940.9705;;;;
2019/06/16 02:22:58;;;;;;;5.4;1.5;;;;;;;15.76;83.47754;941.0273;;;;
2019/06/16 02:25:25;;;;;;;3.4;1.5;;;;;;;15.91;82.92871;941.0323;;;;
2019/06/16 02:27:58;;;;;;;3.8;1.7;;;;;;;16.08;82.82129;941.0315;;;;
2019/06/16 02:30:37;;;;;;;2.7;1.4;;;;;;;16.11;82.45801;941.1131;;;;
2019/06/16 02:33:02;;;;;;;6.4;1.5;;;;;;;16.12;82.72363;941.0994;;;;
2019/06/16 02:35:34;;;;;;;3.7;1.1;;;;;;;16.14;81.41016;941.076;;;;
2019/06/16 02:37:58;;;;;;;4.1;1.3;;;;;;;16.08;82.38281;941.0781;;;;
2019/06/16 02:40:30;;;;;;;3.3;1.1;;;;;;;16.08;82.20996;941.0394;;;;
2019/06/16 02:42:52;;;;;;;1.5;1;;;;;;;16.2;81.91992;941.1414;;;;
2019/06/16 02:45:26;;;;;;;3.2;1.2;;;;;;;15.95;81.58301;941.1871;;;;
2019/06/16 02:48:07;;;;;;;4;1.5;;;;;;;15.82;82.86426;941.1887;;;;
2019/06/16 02:50:37;;;;;;;3.4;1.2;;;;;;;16.01;81.89355;941.2139;;;;
2019/06/16 02:53:01;;;;;;;3.4;1.4;;;;;;;16.09;81.41211;941.1969;;;;
2019/06/16 02:55:26;;;;;;;2;1.3;;;;;;;16.08;82.47363;941.156;;;;
2019/06/16 02:57:52;;;;;;;4.3;1.3;;;;;;;16.14;81.80371;941.1572;;;;
2019/06/16 03:00:18;;;;;;;3.4;1.4;;;;;;;15.92;82.63965;941.2034;;;;
2019/06/16 03:02:43;;;;;;;4.8;1.6;;;;;;;15.98;82.11035;941.1531;;;;
2019/06/16 03:05:17;;;;;;;5.8;1.5;;;;;;;15.93;82.15625;941.1166;;;;
2019/06/16 03:07:50;;;;;;;3.8;1.5;;;;;;;15.86;82.7334;941.1322;;;;
2019/06/16 03:10:20;;;;;;;3.5;1.5;;;;;;;15.87;82.67578;941.0848;;;;
2019/06/16 03:12:46;;;;;;;2.7;1.2;;;;;;;15.81;82.93359;941.1973;;;;
2019/06/16 03:15:30;;;;;;;2.8;1.4;;;;;;;15.7;83.46582;941.1803;;;;
2019/06/16 03:17:54;;;;;;;4.4;1.3;;;;;;;15.75;82.89648;941.2049;;;;
2019/06/16 03:20:17;;;;;;;2.9;1.2;;;;;;;15.66;83.42383;941.2311;;;;
2019/06/16 03:22:48;;;;;;;3.3;1.3;;;;;;;15.75;83.10645;941.2643;;;;
2019/06/16 03:25:19;;;;;;;2.4;1.3;;;;;;;15.77;83.21191;941.2626;;;;
2019/06/16 03:27:52;;;;;;;1.7;1.2;;;;;;;16.06;82.92188;941.2428;;;;
2019/06/16 03:30:16;;;;;;;2.7;1.2;;;;;;;15.96;83.27246;941.2673;;;;
2019/06/16 03:32:45;;;;;;;3.2;1.2;;;;;;;15.94;83.13086;941.3245;;;;
2019/06/16 03:35:11;;;;;;;2.6;1.2;;;;;;;15.93;82.80566;941.3943;;;;
2019/06/16 03:37:44;;;;;;;2.8;1.2;;;;;;;16.02;82.4043;941.3508;;;;
2019/06/16 03:40:17;;;;;;;1.6;1.1;;;;;;;16.18;81.42871;941.3802;;;;
2019/06/16 03:42:52;;;;;;;4.5;1.3;;;;;;;16.27;81.39941;941.4168;;;;
2019/06/16 03:45:21;;;;;;;4.9;1.2;;;;;;;15.91;82.01367;941.4395;;;;
2019/06/16 03:47:49;;;;;;;2.9;1.2;;;;;;;15.58;83.98438;941.4758;;;;
2019/06/16 03:50:15;;;;;;;3.9;1.1;;;;;;;15.66;83.37793;941.5097;;;;
2019/06/16 03:52:49;;;;;;;4.1;1.3;;;;;;;15.7;83.57129;941.5223;;;;
2019/06/16 03:55:14;;;;;;;2.4;1.2;;;;;;;15.66;83.21582;941.5008;;;;
2019/06/16 03:57:40;;;;;;;3.1;1.3;;;;;;;15.79;82.75488;941.4696;;;;
2019/06/16 04:00:13;;;;;;;4.1;1.2;;;;;;;15.86;82.60645;941.5186;;;;
2019/06/16 04:02:44;;;;;;;5.3;1.1;;;;;;;15.95;81.95313;941.4995;;;;
2019/06/16 04:05:07;;;;;;;2.6;1.4;;;;;;;15.81;82.50391;941.5402;;;;
2019/06/16 04:07:39;;;;;;;3.9;1.2;;;;;;;15.97;81.99121;941.4633;;;;
2019/06/16 04:10:20;;;;;;;3;1.1;;;;;;;15.86;81.84375;941.4662;;;;
2019/06/16 04:12:47;;;;;;;2;0.9;;;;;;;15.73;82.48828;941.5149;;;;
2019/06/16 04:15:18;;;;;;;1.4;1.1;;;;;;;15.75;82.2627;941.4698;;;;
2019/06/16 04:17:59;;;;;;;3.3;1.5;;;;;;;15.82;81.83496;941.4883;;;;
2019/06/16 04:20:21;;;;;;;3.7;2.7;;;;;;;15.73;81.3584;941.5061;;;;
2019/06/16 04:22:55;;;;;;;2.9;2.5;;;;;;;15.95;81.30566;941.4698;;;;
2019/06/16 04:25:21;;;;;;;3.2;2.6;;;;;;;15.96;81.73535;941.5236;;;;
2019/06/16 04:27:54;;;;;;;3.2;2.3;;;;;;;15.96;82.2207;941.4553;;;;
2019/06/16 04:30:25;;;;;;;3.3;1.2;;;;;;;16.11;80.52637;941.4988;;;;
2019/06/16 04:32:51;;;;;;;1.4;1;;;;;;;16.03;80.89258;941.5508;;;;
2019/06/16 04:35:19;;;;;;;2;1.3;;;;;;;15.92;81.90039;941.5544;;;;
2019/06/16 04:37:50;;;;;;;2;1.3;;;;;;;16.08;81.14453;941.5367;;;;
2019/06/16 04:40:24;;;;;;;1.8;1.6;;;;;;;15.91;81.19336;941.5472;;;;
2019/06/16 04:42:48;;;;;;;2.7;1.5;;;;;;;15.71;82.18457;941.6114;;;;
2019/06/16 04:45:17;;;;;;;3.5;1.5;;;;;;;15.95;82.02246;941.6152;;;;
2019/06/16 04:47:45;;;;;;;2.6;1.4;;;;;;;15.97;81.60938;941.6303;;;;
2019/06/16 04:50:14;;;;;;;2.2;1.4;;;;;;;16.08;81.38672;941.6227;;;;
2019/06/16 04:52:42;;;;;;;1.9;1.3;;;;;;;15.92;81.69238;941.6789;;;;
2019/06/16 04:55:10;;;;;;;2.7;1.3;;;;;;;15.96;81.48047;941.6866;;;;
2019/06/16 04:57:33;;;;;;;1.8;1.2;;;;;;;16.15;80.70605;941.6746;;;;
2019/06/16 05:00:10;;;;;;;3.2;1.4;;;;;;;16.2;81.84863;941.7336;;;;
2019/06/16 05:02:33;;;;;;;4.2;1.4;;;;;;;16.47;79.2832;941.7845;;;;
2019/06/16 05:05:03;;;;;;;1.8;1.1;;;;;;;16.61;78.37012;941.7481;;;;
2019/06/16 05:07:29;;;;;;;1.9;1.1;;;;;;;16.8;78.78809;941.8033;;;;
2019/06/16 05:10:20;;;;;;;2.6;1.2;;;;;;;17.03;76.18555;941.834;;;;
2019/06/16 05:12:56;;;;;;;2.5;1;;;;;;;16.96;76.33594;941.799;;;;
2019/06/16 05:15:35;;;;;;;1;0.9;;;;;;;17;76.40137;941.7938;;;;
2019/06/16 05:18:16;;;;;;;1.2;0.9;;;;;;;17.24;75.2832;941.7798;;;;
2019/06/16 05:20:41;;;;;;;2.6;1;;;;;;;17.36;75.67578;941.7576;;;;
2019/06/16 05:23:16;;;;;;;3.9;1.1;;;;;;;17.54;75.02246;941.7751;;;;
2019/06/16 05:25:43;;;;;;;2;1.1;;;;;;;17.62;75.84863;941.8301;;;;
2019/06/16 05:28:12;;;;;;;1.9;1.2;;;;;;;17.68;77.60059;941.8748;;;;
2019/06/16 05:30:41;;;;;;;4.5;1.3;;;;;;;17.61;76.36719;941.78;;;;
2019/06/16 05:33:07;;;;;;;2.6;1.2;;;;;;;17.71;75.93359;941.8196;;;;
2019/06/16 05:35:35;;;;;;;2.3;1.3;;;;;;;17.61;75.15039;941.8613;;;;
2019/06/16 05:38:08;;;;;;;1.5;1.2;;;;;;;17.6;77.52637;941.8929;;;;
2019/06/16 05:40:35;;;;;;;3.5;1.6;;;;;;;17.53;78.22266;941.8881;;;;
2019/06/16 05:43:00;;;;;;;2;1.4;;;;;;;17.6;76.72559;941.9098;;;;
2019/06/16 05:45:30;;;;;;;3.2;1.4;;;;;;;17.59;77.16504;941.9622;;;;
2019/06/16 05:48:00;;;;;;;2.8;1.2;;;;;;;17.78;76.46875;941.8889;;;;
2019/06/16 05:50:27;;;;;;;2.6;1.3;;;;;;;17.76;76.18652;941.9728;;;;
2019/06/16 05:53:01;;;;;;;3.3;1.1;;;;;;;17.63;76.4668;942.0047;;;;
2019/06/16 05:55:31;;;;;;;1.4;1.1;;;;;;;17.58;75.44727;942.0106;;;;
2019/06/16 05:58:04;;;;;;;3.8;1.3;;;;;;;17.64;77.1748;941.9869;;;;
2019/06/16 06:00:27;;;;;;;2.5;1.3;;;;;;;17.6;75.82031;941.9573;;;;
2019/06/16 06:02:48;;;;;;;3.9;1.2;;;;;;;17.69;75.05859;941.9947;;;;
2019/06/16 06:05:12;;;;;;;2.5;1.1;;;;;;;17.71;75.3418;942.0258;;;;
2019/06/16 06:07:47;;;;;;;1.5;1.1;;;;;;;17.79;75.5293;942.0506;;;;
2019/06/16 06:10:19;;;;;;;2.3;1.1;;;;;;;17.86;76.69043;942.1082;;;;
2019/06/16 06:12:51;;;;;;;3.1;1;;;;;;;17.82;75.04688;942.1424;;;;
2019/06/16 06:15:26;;;;;;;2.2;1.1;;;;;;;17.9;74.64063;942.1721;;;;
2019/06/16 06:17:59;;;;;;;1.8;1.1;;;;;;;17.81;75.50977;942.1777;;;;
2019/06/16 06:20:27;;;;;;;2.3;1.1;;;;;;;17.86;75.60059;942.2103;;;;
2019/06/16 06:23:00;;;;;;;1.8;1.1;;;;;;;17.98;74.50391;942.1711;;;;
2019/06/16 06:25:36;;;;;;;1.3;0.8;;;;;;;18.13;74.56445;942.2088;;;;
2019/06/16 06:28:05;;;;;;;1.6;0.9;;;;;;;18.13;74.50684;942.2137;;;;
2019/06/16 06:30:33;;;;;;;2.9;1;;;;;;;18.26;75.05078;942.2244;;;;
2019/06/16 06:33:02;;;;;;;1.4;1;;;;;;;18.3;72.17676;942.2407;;;;
2019/06/16 06:35:26;;;;;;;2.8;1;;;;;;;18.37;74.38672;942.2662;;;;
2019/06/16 06:37:57;;;;;;;1.1;0.6;;;;;;;18.45;70.3291;942.2227;;;;
2019/06/16 06:40:34;;;;;;;1.9;1;;;;;;;18.5;72.95313;942.3075;;;;
2019/06/16 06:42:57;;;;;;;1.7;0.8;;;;;;;18.55;72.77637;942.3577;;;;
2019/06/16 06:45:30;;;;;;;2.3;1.1;;;;;;;18.67;71.44629;942.3783;;;;
2019/06/16 06:47:58;;;;;;;1.3;0.9;;;;;;;18.6;67.94629;942.4156;;;;
2019/06/16 06:50:27;;;;;;;2.1;0.9;;;;;;;18.34;69.52148;942.3989;;;;
2019/06/16 06:53:02;;;;;;;3.5;2;;;;;;;18.25;70.33301;942.4099;;;;
2019/06/16 06:55:38;;;;;;;1.4;0.8;;;;;;;18.16;69.79492;942.4075;;;;
2019/06/16 06:58:13;;;;;;;1.2;0.8;;;;;;;18.11;70.47266;942.4219;;;;
2019/06/16 07:00:33;;;;;;;2.1;0.8;;;;;;;18;69.97754;942.4568;;;;
2019/06/16 07:03:00;;;;;;;2.1;0.8;;;;;;;18.21;70.55762;942.4875;;;;
2019/06/16 07:05:29;;;;;;;2.2;0.7;;;;;;;18.43;71.65039;942.5053;;;;
2019/06/16 07:07:54;;;;;;;4.3;1;;;;;;;18.68;68.05078;942.4369;;;;
2019/06/16 07:10:24;;;;;;;1.4;0.9;;;;;;;18.73;70.00098;942.4314;;;;
2019/06/16 07:13:01;;;;;;;1.1;0.8;;;;;;;18.86;70.3125;942.428;;;;
2019/06/16 07:15:34;;;;;;;1.1;0.8;;;;;;;19.18;67.80273;942.4367;;;;
2019/06/16 07:18:05;;;;;;;2.7;1.1;;;;;;;19.21;66.61914;942.3256;;;;
2019/06/16 07:20:38;;;;;;;1.7;0.6;;;;;;;19.45;65.37207;942.4899;;;;
2019/06/16 07:23:29;;;;;;;1;0.6;;;;;;;19.97;67.30469;942.4738;;;;
2019/06/16 07:25:41;;;;;;;2;1;;;;;;;20.67;64.59668;942.4416;;;;
2019/06/16 07:28:11;;;;;;;2.2;0.8;;;;;;;21.22;62.3584;942.4146;;;;
2019/06/16 07:30:37;;;;;;;2.5;1;;;;;;;21.73;61.96289;942.413;;;;
2019/06/16 07:33:10;;;;;;;1.9;0.9;;;;;;;22.33;61.16602;942.476;;;;
2019/06/16 07:35:44;;;;;;;1.5;0.7;;;;;;;22.53;55.05762;942.3883;;;;
2019/06/16 07:37:59;;;;;;;1.3;0.5;;;;;;;23.74;50.98242;942.4091;;;;
2019/06/16 07:40:29;;;;;;;2.5;0.5;;;;;;;26.46;45.6582;942.4102;;;;
2019/06/16 07:42:54;;;;;;;0.9;0.4;;;;;;;26.72;46.08789;942.3839;;;;
2019/06/16 07:45:33;;;;;;;1.3;0.7;;;;;;;26.08;46.19922;942.4059;;;;
2019/06/16 07:47:56;;;;;;;2.1;0.6;;;;;;;26.08;47.82031;942.419;;;;
2019/06/16 07:50:23;;;;;;;0.8;0.6;;;;;;;25.96;49.28516;942.4672;;;;
2019/06/16 07:52:51;;;;;;;1.2;0.7;;;;;;;26.25;44.62012;942.3717;;;;
2019/06/16 07:55:22;;;;;;;6.3;0.7;;;;;;;26.43;49.36035;942.3924;;;;
2019/06/16 07:57:59;;;;;;;2.4;0.7;;;;;;;26.32;48.05859;942.3482;;;;
2019/06/16 08:00:25;;;;;;;2.1;0.6;;;;;;;27.19;45.56836;942.3678;;;;
2019/06/16 08:02:54;;;;;;;1.9;0.6;;;;;;;28.45;41.35547;942.3767;;;;
2019/06/16 08:05:24;;;;;;;3.9;0.6;;;;;;;27.64;43.86914;942.4294;;;;
2019/06/16 08:07:48;;;;;;;1.4;0.5;;;;;;;26.94;44.9502;942.4194;;;;
2019/06/16 08:10:13;;;;;;;1.2;0.6;;;;;;;26.16;45.46289;942.4114;;;;
2019/06/16 08:12:44;;;;;;;4;0.9;;;;;;;25.31;48.70605;942.4152;;;;
2019/06/16 08:15:07;;;;;;;1.1;0.8;;;;;;;24.78;50.04102;942.4522;;;;
2019/06/16 08:17:40;;;;;;;1.5;0.7;;;;;;;24.44;52.48926;942.3153;;;;
2019/06/16 08:20:08;;;;;;;2.3;0.8;;;;;;;23.92;53.8291;942.3873;;;;
2019/06/16 08:22:42;;;;;;;1.3;0.7;;;;;;;23.53;54.82813;942.4465;;;;
2019/06/16 08:25:05;;;;;;;2.7;0.7;;;;;;;23.34;54.06543;942.4509;;;;
2019/06/16 08:27:33;;;;;;;3.9;0.8;;;;;;;22.98;53.33984;942.4482;;;;
2019/06/16 08:30:06;;;;;;;2.4;0.8;;;;;;;22.01;56.24707;942.4793;;;;
2019/06/16 08:32:48;;;;;;;2.1;0.7;;;;;;;21.29;58.93945;942.5358;;;;
2019/06/16 08:35:30;;;;;;;137.1;108.4;;;;;;;21.7;58.68945;942.4989;;;;
2019/06/16 08:37:52;;;;;;;330.6;266;;;;;;;21.77;58.45313;942.5457;;;;
2019/06/16 08:40:27;;;;;;;228.1;113.9;;;;;;;22;58.10938;942.4584;;;;
2019/06/16 08:42:52;;;;;;;4.8;2.4;;;;;;;21.87;59.75586;942.5327;;;;
2019/06/16 08:45:20;;;;;;;3.7;1.3;;;;;;;21.95;59.64941;942.4576;;;;
2019/06/16 08:48:01;;;;;;;4;1.1;;;;;;;22.09;58.81445;942.5076;;;;
2019/06/16 08:50:18;;;;;;;2.3;1.1;;;;;;;21.8;59.77051;942.5285;;;;
2019/06/16 08:52:51;;;;;;;2.4;0.9;;;;;;;21.57;58.43945;942.5197;;;;
2019/06/16 08:55:11;;;;;;;3.7;0.8;;;;;;;21.62;58.5625;942.5745;;;;
2019/06/16 08:57:45;;;;;;;1.7;0.9;;;;;;;21.7;59.4043;942.6116;;;;
2019/06/16 09:00:19;;;;;;;3.6;1;;;;;;;21.79;60.45996;942.5814;;;;
2019/06/16 09:02:51;;;;;;;1.8;1.1;;;;;;;21.83;60.9707;942.5806;;;;
2019/06/16 09:05:22;;;;;;;2.6;1;;;;;;;21.96;59.3457;942.5294;;;;
2019/06/16 09:07:52;;;;;;;3.2;0.9;;;;;;;22.02;58.78027;942.5692;;;;
2019/06/16 09:10:22;;;;;;;2.8;1;;;;;;;22.09;57.6875;942.5256;;;;
2019/06/16 09:12:55;;;;;;;2.7;1;;;;;;;22.16;57.80273;942.5502;;;;
2019/06/16 09:15:28;;;;;;;1.4;0.9;;;;;;;22.17;58.92871;942.5582;;;;
2019/06/16 09:18:07;;;;;;;1.5;0.9;;;;;;;21.9;58.06152;942.5195;;;;
2019/06/16 09:20:34;;;;;;;1.9;0.9;;;;;;;21.89;58.09473;942.5555;;;;
2019/06/16 09:23:17;;;;;;;4.2;1;;;;;;;22.02;59.88184;942.5342;;;;
2019/06/16 09:25:45;;;;;;;1.6;0.9;;;;;;;22.2;58.05371;942.5711;;;;
2019/06/16 09:28:16;;;;;;;2.6;1.1;;;;;;;22.2;57.87695;942.623;;;;
2019/06/16 09:30:43;;;;;;;1;0.8;;;;;;;22.24;57.20215;942.5882;;;;
2019/06/16 09:33:18;;;;;;;2.5;1;;;;;;;22.51;56.47461;942.6212;;;;
2019/06/16 09:35:50;;;;;;;2.7;0.9;;;;;;;22.35;55.50488;942.5726;;;;
2019/06/16 09:38:11;;;;;;;1.7;0.9;;;;;;;22.48;57.35059;942.5554;;;;
2019/06/16 09:40:41;;;;;;;2.6;1;;;;;;;22.64;56.03223;942.5908;;;;
2019/06/16 09:43:04;;;;;;;1.4;0.9;;;;;;;22.76;56.38867;942.5351;;;;
2019/06/16 09:45:32;;;;;;;1.6;0.9;;;;;;;22.54;56.67676;942.552;;;;
2019/06/16 09:48:05;;;;;;;3.4;1.8;;;;;;;22.13;55.84082;942.5712;;;;
2019/06/16 09:50:32;;;;;;;2.8;1.6;;;;;;;22.23;56.71973;942.5932;;;;
2019/06/16 09:53:00;;;;;;;4;1.1;;;;;;;22.44;56.40723;942.6944;;;;
2019/06/16 09:55:38;;;;;;;70.8;63.1;;;;;;;22.59;56.66211;942.6697;;;;
2019/06/16 09:58:06;;;;;;;6.1;5.5;;;;;;;22.02;55.79102;942.7587;;;;
2019/06/16 10:05:02;;;;;;;2.9;1.1;;;;;;;21.61;57.80078;942.7262;;;;
2019/06/16 10:07:27;;;;;;;3.3;1.2;;;;;;;21.61;58.52734;942.7053;;;;
2019/06/16 10:10:04;;;;;;;5.2;1.5;;;;;;;21.64;57.07813;942.6886;;;;
2019/06/16 10:12:33;;;;;;;3.8;2.3;;;;;;;21.63;56.75977;942.6686;;;;
2019/06/16 10:15:14;;;;;;;3.2;1.5;;;;;;;21.53;57.98926;942.5986;;;;
2019/06/16 10:17:57;;;;;;;2.9;1.9;;;;;;;21.2;57.75879;942.6937;;;;
2019/06/16 10:20:20;;;;;;;17.7;13.3;;;;;;;21.17;60.30566;942.7017;;;;
2019/06/16 10:22:50;;;;;;;11.2;9.9;;;;;;;21.16;60.69043;942.6897;;;;
2019/06/16 10:25:22;;;;;;;1.9;1;;;;;;;21.31;58.29883;942.6962;;;;
2019/06/16 10:28:00;;;;;;;3;1;;;;;;;21.29;58.46094;942.7471;;;;
2019/06/16 10:30:21;;;;;;;3.1;1;;;;;;;21.23;58.57031;942.7498;;;;
2019/06/16 10:32:52;;;;;;;2.9;1.3;;;;;;;21.12;58.85938;942.7814;;;;
2019/06/16 10:35:27;;;;;;;2.4;1.1;;;;;;;20.98;60.54785;942.782;;;;
2019/06/16 10:37:50;;;;;;;1.7;1.1;;;;;;;20.88;58.52246;942.8297;;;;
2019/06/16 10:40:16;;;;;;;3;1.3;;;;;;;20.83;59.68555;942.9093;;;;
2019/06/16 10:42:45;;;;;;;2;0.9;;;;;;;20.63;59.25;942.823;;;;
2019/06/16 10:45:16;;;;;;;2.1;1.2;;;;;;;20.51;58.83691;942.7595;;;;
2019/06/16 10:47:52;;;;;;;2.7;1.2;;;;;;;20.4;59.34863;942.7686;;;;
2019/06/16 10:50:26;;;;;;;2.7;1;;;;;;;20.47;61.63477;942.856;;;;
2019/06/16 10:52:59;;;;;;;2.5;2.1;;;;;;;20.57;60.91211;942.8692;;;;
2019/06/16 10:55:27;;;;;;;2.2;1.7;;;;;;;20.6;59.88867;942.8474;;;;
2019/06/16 10:58:00;;;;;;;1.6;1.3;;;;;;;20.52;61.58301;942.8542;;;;
2019/06/16 11:00:34;;;;;;;2.7;1.1;;;;;;;20.62;62.33301;942.8495;;;;
2019/06/16 11:03:00;;;;;;;1.4;1;;;;;;;20.51;61.72266;942.8979;;;;
2019/06/16 11:05:42;;;;;;;2.1;1.2;;;;;;;20.46;61.59961;942.8739;;;;
2019/06/16 11:07:59;;;;;;;1.9;1.1;;;;;;;20.46;60.94434;942.8958;;;;
2019/06/16 11:10:27;;;;;;;4.2;1.2;;;;;;;20.56;61.20313;942.8922;;;;
2019/06/16 11:13:02;;;;;;;2.8;1.2;;;;;;;20.54;62.79004;942.9628;;;;
2019/06/16 11:15:40;;;;;;;3;1.6;;;;;;;20.34;62.13086;942.9366;;;;
2019/06/16 11:18:16;;;;;;;1.7;1.1;;;;;;;20.3;60.78223;942.8808;;;;
2019/06/16 11:20:49;;;;;;;2.1;1.2;;;;;;;20.29;61.71387;942.9683;;;;
2019/06/16 11:23:13;;;;;;;2.6;1.1;;;;;;;20.4;61.67188;942.9498;;;;
2019/06/16 11:25:42;;;;;;;1.7;1.6;;;;;;;19.97;62.3584;943.0041;;;;
2019/06/16 11:28:16;;;;;;;2.9;1.7;;;;;;;19.92;62.44434;942.9719;;;;
2019/06/16 11:30:37;;;;;;;32;29.1;;;;;;;19.99;63.13184;942.9405;;;;
2019/06/16 11:33:06;;;;;;;38;34.4;;;;;;;19.79;62.63477;942.8455;;;;
2019/06/16 11:35:36;;;;;;;4.6;3.9;;;;;;;19.71;62.63477;942.9286;;;;
2019/06/16 11:38:07;;;;;;;5.8;2.1;;;;;;;19.62;63.06738;942.952;;;;
2019/06/16 11:40:31;;;;;;;2.4;1.5;;;;;;;19.66;62.74609;942.9731;;;;
2019/06/16 11:43:04;;;;;;;4.5;1.8;;;;;;;19.63;62.66016;942.968;;;;
2019/06/16 11:45:24;;;;;;;192.9;175.2;;;;;;;19.81;62.19531;942.9372;;;;
2019/06/16 11:47:48;;;;;;;11.9;10.9;;;;;;;19.73;63.97949;942.9905;;;;
2019/06/16 11:50:15;;;;;;;2.2;1.5;;;;;;;19.62;63.54395;942.9178;;;;
2019/06/16 11:52:45;;;;;;;7.1;6.4;;;;;;;19.64;63.94434;942.9581;;;;
2019/06/16 11:55:17;;;;;;;15.3;14;;;;;;;19.65;63.72461;942.9272;;;;
2019/06/16 11:57:41;;;;;;;4.2;2.2;;;;;;;19.5;63.21289;942.9236;;;;
2019/06/16 12:00:15;;;;;;;2.6;1.4;;;;;;;19.49;62.69922;942.9763;;;;
2019/06/16 12:02:44;;;;;;;2.3;1.2;;;;;;;19.52;63.26367;942.9249;;;;
2019/06/16 12:05:16;;;;;;;3.6;1.1;;;;;;;19.53;62.69336;943.0055;;;;
2019/06/16 12:07:44;;;;;;;3.4;1.2;;;;;;;19.45;62.61035;942.9422;;;;
2019/06/16 12:10:16;;;;;;;3;1.5;;;;;;;19.56;62.62598;942.9512;;;;
2019/06/16 12:12:48;;;;;;;3;1;;;;;;;19.54;62.6123;942.9103;;;;
2019/06/16 12:15:18;;;;;;;3.9;2;;;;;;;19.38;63.88184;942.9423;;;;
2019/06/16 12:17:50;;;;;;;3.4;1.5;;;;;;;19.39;64.73535;942.9753;;;;
2019/06/16 12:20:18;;;;;;;4.8;1.2;;;;;;;19.35;63.41211;942.981;;;;
2019/06/16 12:22:45;;;;;;;2.6;1.3;;;;;;;19.34;63.62109;942.9649;;;;
2019/06/16 12:25:18;;;;;;;3.6;2;;;;;;;19.44;63.9043;942.9342;;;;
2019/06/16 12:27:35;;;;;;;2.7;1.2;;;;;;;19.54;65.1543;943.0048;;;;
2019/06/16 12:30:08;;;;;;;2.7;1.2;;;;;;;19.43;64.3457;943.0176;;;;
2019/06/16 12:32:31;;;;;;;4.1;1.3;;;;;;;19.53;63.98633;942.9626;;;;
2019/06/16 12:35:12;;;;;;;1.8;1.1;;;;;;;19.57;63.23438;942.9623;;;;
2019/06/16 12:37:44;;;;;;;3.9;1.5;;;;;;;19.69;63.85645;942.9355;;;;
2019/06/16 12:40:10;;;;;;;2;1.3;;;;;;;19.57;62.62891;942.9155;;;;
2019/06/16 12:42:41;;;;;;;3.5;1.5;;;;;;;19.6;61.76953;942.9634;;;;
2019/06/16 12:45:12;;;;;;;2.1;1.3;;;;;;;19.89;60.69043;942.9539;;;;
2019/06/16 12:47:38;;;;;;;4.7;1.2;;;;;;;19.95;61.37598;942.9462;;;;
2019/06/16 12:50:10;;;;;;;2.7;1.1;;;;;;;20.11;61.7832;942.9434;;;;
2019/06/16 12:52:54;;;;;;;2.3;0.9;;;;;;;20.16;61.39355;942.9108;;;;
2019/06/16 12:55:33;;;;;;;3;1.4;;;;;;;20.24;60.64551;942.8934;;;;
2019/06/16 12:58:00;;;;;;;1.6;1;;;;;;;20.41;60.62207;942.984;;;;
2019/06/16 13:00:53;;;;;;;1.9;1;;;;;;;20.44;59.0498;943.0192;;;;
2019/06/16 13:03:14;;;;;;;3.3;1.2;;;;;;;20.25;58.97754;942.9392;;;;
2019/06/16 13:05:46;;;;;;;1.4;0.9;;;;;;;20.12;61.62109;942.9763;;;;
2019/06/16 13:08:10;;;;;;;1.3;1;;;;;;;20.3;62.09082;942.9842;;;;
2019/06/16 13:10:35;;;;;;;1.6;1;;;;;;;20.35;61.16406;943.0034;;;;
2019/06/16 13:13:04;;;;;;;2.2;0.9;;;;;;;20.43;60.0166;942.9992;;;;
2019/06/16 13:15:37;;;;;;;2;1.1;;;;;;;20.68;60.78711;942.9675;;;;
2019/06/16 13:18:04;;;;;;;3.2;1;;;;;;;20.59;61.73242;942.9659;;;;
2019/06/16 13:20:37;;;;;;;2.5;1.1;;;;;;;20.59;61.47656;942.9739;;;;
2019/06/16 13:23:04;;;;;;;3.5;1;;;;;;;20.62;61.78418;942.9872;;;;
2019/06/16 13:25:39;;;;;;;3.3;1.2;;;;;;;20.46;59.26367;943.0164;;;;
2019/06/16 13:28:11;;;;;;;1.7;1;;;;;;;20.54;60.42969;942.9678;;;;
2019/06/16 13:30:49;;;;;;;2.3;0.9;;;;;;;20.56;60.08301;942.9818;;;;
2019/06/16 13:33:26;;;;;;;2.5;1;;;;;;;20.64;61.33105;942.9683;;;;
2019/06/16 13:36:14;;;;;;;2.3;1;;;;;;;20.44;59.83203;942.9495;;;;
2019/06/16 13:38:40;;;;;;;1.9;1;;;;;;;20.55;61.12012;942.9528;;;;
2019/06/16 13:41:15;;;;;;;2.5;1.2;;;;;;;20.45;59.45898;942.9964;;;;
2019/06/16 13:43:48;;;;;;;4.3;1;;;;;;;20.29;59.93945;943.0031;;;;
2019/06/16 13:46:10;;;;;;;2.1;0.9;;;;;;;20.25;59.44434;943.012;;;;
2019/06/16 13:48:42;;;;;;;2.4;1.1;;;;;;;20.24;58.69629;943.0139;;;;
2019/06/16 13:51:20;;;;;;;3.1;1.3;;;;;;;20.32;60.22461;942.9943;;;;
2019/06/16 13:53:42;;;;;;;2.9;1.5;;;;;;;20.29;59.08887;943.0111;;;;
2019/06/16 13:56:09;;;;;;;3.2;1.9;;;;;;;20.5;60.55176;943.0374;;;;
2019/06/16 13:58:38;;;;;;;1.9;1.7;;;;;;;20.61;60.38086;943.0795;;;;
2019/06/16 14:01:04;;;;;;;1.9;1.3;;;;;;;20.63;60.78223;943.0938;;;;
2019/06/16 14:03:35;;;;;;;2.9;1.3;;;;;;;20.72;58.09375;943.0264;;;;
2019/06/16 14:06:07;;;;;;;2.4;1.1;;;;;;;20.71;58.71191;942.9844;;;;
2019/06/16 14:08:38;;;;;;;2.5;1.2;;;;;;;20.71;59.22559;943.0193;;;;
2019/06/16 14:11:16;;;;;;;1.7;0.9;;;;;;;20.84;61.52344;943.0159;;;;
2019/06/16 14:13:44;;;;;;;2.2;1;;;;;;;20.86;58.5791;942.9752;;;;
2019/06/16 14:16:11;;;;;;;1.7;1;;;;;;;20.81;57.47363;943.0027;;;;
2019/06/16 14:18:45;;;;;;;1.8;1;;;;;;;20.89;58.35059;942.9702;;;;
2019/06/16 14:21:13;;;;;;;2.3;1.1;;;;;;;20.78;60.67285;942.9408;;;;
2019/06/16 14:23:45;;;;;;;3.6;1.1;;;;;;;20.91;57.41699;942.9852;;;;
2019/06/16 14:26:22;;;;;;;2.7;1;;;;;;;20.88;58.40723;943.032;;;;
2019/06/16 14:28:53;;;;;;;2;1;;;;;;;20.84;57.66504;943.008;;;;
2019/06/16 14:31:27;;;;;;;1.6;1.1;;;;;;;20.87;59.78516;943.0031;;;;
2019/06/16 14:33:50;;;;;;;1.8;1;;;;;;;20.76;61.30176;942.9478;;;;
2019/06/16 14:36:22;;;;;;;2.4;1.3;;;;;;;20.84;61.78027;942.9771;;;;
2019/06/16 14:38:51;;;;;;;1.9;1.2;;;;;;;20.85;61.45313;942.9592;;;;
2019/06/16 14:41:37;;;;;;;3.5;1.2;;;;;;;20.79;60.53418;942.9487;;;;
2019/06/16 14:44:31;;;;;;;2.8;1.3;;;;;;;20.74;62.14063;942.9636;;;;
2019/06/16 14:47:03;;;;;;;2.7;1.2;;;;;;;20.68;61.24219;942.9247;;;;
2019/06/16 14:49:33;;;;;;;1.4;1.1;;;;;;;20.65;63.80957;942.9146;;;;
2019/06/16 14:52:09;;;;;;;1.8;1.1;;;;;;;20.48;60.09375;942.8591;;;;